Time;durP1;ratioP1;P1;durP2;ratioP2;P2;SDS_P1;SDS_P2;PMS_P1;PMS_P2;Temp;Humidity;BMP_temperature;BMP_pressure;BME280_temperature;BME280_humidity;BME280_pressure;Samples;Min_cycle;Max_cycle;Signal;HPM_P1;HPM_P2
2024/03/04 00:07:15;;;;;;;20.00;6.68;;;9.00;60.20;;;;;;20689909;28;20057;-39
2024/03/04 00:17:16;;;;;;;18.23;6.35;;;9.10;52.60;;;;;;20684382;28;20100;-39
2024/03/04 00:27:16;;;;;;;15.70;5.50;;;9.10;54.80;;;;;;20684769;28;20173;-39
2024/03/04 00:37:17;;;;;;;9.57;4.20;;;8.90;57.50;;;;;;20656794;28;20046;-39
2024/03/04 00:47:18;;;;;;;13.20;4.30;;;9.10;51.40;;;;;;20684627;28;20042;-39
2024/03/04 00:57:19;;;;;;;11.93;4.15;;;8.90;45.50;;;;;;20668332;28;20440;-39
2024/03/04 01:07:20;;;;;;;10.23;3.67;;;9.00;41.40;;;;;;20660251;28;20117;-39
2024/03/04 01:17:21;;;;;;;10.18;4.72;;;8.90;37.20;;;;;;20624592;28;20501;-39
2024/03/04 01:27:21;;;;;;;12.52;5.18;;;8.80;36.20;;;;;;20698326;28;20041;-39
2024/03/04 01:37:22;;;;;;;10.80;4.22;;;8.90;32.60;;;;;;20656492;28;20125;-39
2024/03/04 01:47:25;;;;;;;11.37;4.73;;;8.80;36.60;;;;;;20694604;28;20038;-39
2024/03/04 01:57:26;;;;;;;16.13;5.03;;;8.80;43.70;;;;;;20657633;28;20895;-39
2024/03/04 02:07:26;;;;;;;17.23;5.55;;;8.80;42.70;;;;;;20678948;28;20033;-39
2024/03/04 02:17:27;;;;;;;11.45;5.40;;;8.80;40.70;;;;;;20619441;28;20088;-39
2024/03/04 02:27:28;;;;;;;14.98;4.78;;;8.70;49.50;;;;;;20696701;28;20057;-39
2024/03/04 02:37:28;;;;;;;6.53;2.80;;;8.60;37.70;;;;;;20664955;28;20120;-39
2024/03/04 02:47:29;;;;;;;6.65;1.67;;;8.50;28.10;;;;;;20686270;28;20038;-39
2024/03/04 02:57:30;;;;;;;6.45;1.60;;;8.40;22.80;;;;;;20684929;28;20046;-39
2024/03/04 03:07:33;;;;;;;4.45;1.27;;;8.50;13.30;;;;;;20691855;28;20046;-39
2024/03/04 03:17:35;;;;;;;4.53;1.33;;;8.40;17.30;;;;;;20662213;28;20462;-39
2024/03/04 03:27:36;;;;;;;3.95;1.75;;;8.30;16.50;;;;;;20654190;28;20092;-39
2024/03/04 03:37:37;;;;;;;4.35;1.75;;;8.20;21.60;;;;;;20657407;28;20061;-39
2024/03/04 03:47:37;;;;;;;5.38;1.60;;;8.30;20.50;;;;;;20681989;28;20029;-39
2024/03/04 03:57:38;;;;;;;3.78;1.92;;;8.20;15.20;;;;;;20670194;28;20133;-39
2024/03/04 04:07:38;;;;;;;5.07;1.70;;;8.20;17.00;;;;;;20683674;28;20052;-39
2024/03/04 04:17:39;;;;;;;6.20;1.48;;;8.00;20.50;;;;;;20678478;28;20050;-39
2024/03/04 04:27:40;;;;;;;4.90;1.80;;;8.10;18.90;;;;;;20666633;28;20070;-39
2024/03/04 04:37:43;;;;;;;4.78;1.35;;;8.10;19.40;;;;;;20662744;28;20065;-39
2024/03/04 04:47:44;;;;;;;4.47;1.02;;;8.10;19.10;;;;;;20629756;28;20566;-39
2024/03/04 04:57:44;;;;;;;7.15;1.00;;;8.00;18.80;;;;;;20662479;28;20197;-39
2024/03/04 05:07:45;;;;;;;6.67;1.00;;;8.00;16.60;;;;;;20680975;28;20049;-39
2024/03/04 05:17:46;;;;;;;6.30;1.63;;;7.80;23.20;;;;;;20602063;28;20580;-39
2024/03/04 05:27:46;;;;;;;2.72;0.90;;;7.80;30.80;;;;;;20664464;28;20045;-39
2024/03/04 05:37:47;;;;;;;3.97;0.90;;;7.70;36.90;;;;;;20689222;28;20603;-39
2024/03/04 05:47:47;;;;;;;2.22;0.80;;;7.70;35.00;;;;;;20696920;28;20453;-39
2024/03/04 05:57:48;;;;;;;3.92;1.13;;;7.60;38.20;;;;;;20706512;28;20042;-39
2024/03/04 06:07:49;;;;;;;3.20;1.00;;;7.60;40.00;;;;;;20681873;28;20474;-39
2024/03/04 06:17:49;;;;;;;3.55;0.90;;;7.50;48.90;;;;;;20697130;28;20452;-39
2024/03/04 06:27:50;;;;;;;3.97;1.02;;;7.50;58.30;;;;;;20701529;28;20026;-39
2024/03/04 06:37:51;;;;;;;3.83;0.98;;;7.50;60.30;;;;;;20699137;28;20425;-39
2024/03/04 06:47:53;;;;;;;4.20;1.00;;;7.50;63.00;;;;;;20673446;28;20041;-39
2024/03/04 06:57:53;;;;;;;3.13;1.00;;;7.50;69.90;;;;;;20663211;28;20038;-39
2024/03/04 07:07:54;;;;;;;4.38;1.02;;;7.50;76.70;;;;;;20686565;28;20459;-39
2024/03/04 07:17:55;;;;;;;4.70;1.10;;;7.50;85.80;;;;;;20697839;28;20050;-38
2024/03/04 07:27:55;;;;;;;2.30;1.08;;;7.60;91.40;;;;;;20695459;28;20180;-39
2024/03/04 07:37:56;;;;;;;5.97;1.30;;;7.70;88.10;;;;;;20688136;28;20054;-39
2024/03/04 07:47:57;;;;;;;4.45;1.10;;;7.80;84.10;;;;;;20692192;28;20458;-39
2024/03/04 07:57:58;;;;;;;5.35;1.23;;;7.90;65.90;;;;;;20691885;28;20296;-38
2024/03/04 08:08:00;;;;;;;5.10;1.50;;;8.00;53.60;;;;;;20669790;28;20091;-39
2024/03/04 08:18:00;;;;;;;5.07;1.45;;;8.10;40.30;;;;;;20690973;28;20041;-39
2024/03/04 08:28:03;;;;;;;3.55;1.33;;;8.30;32.50;;;;;;20693089;28;20165;-39
2024/03/04 08:38:03;;;;;;;2.97;1.20;;;8.50;40.70;;;;;;20685387;28;20368;-39
2024/03/04 08:48:05;;;;;;;7.25;1.48;;;8.80;25.10;;;;;;20668870;28;20533;-39
2024/03/04 08:58:05;;;;;;;3.17;1.30;;;9.20;18.30;;;;;;20685134;28;20044;-39
2024/03/04 09:08:06;;;;;;;2.53;0.80;;;9.50;2.30;;;;;;20702528;28;20026;-39
2024/03/04 09:18:06;;;;;;;4.43;1.10;;;9.50;1.00;;;;;;20709399;28;20062;-39
2024/03/04 09:28:07;;;;;;;3.47;0.80;;;9.50;1.00;;;;;;20711135;28;20050;-39
2024/03/04 09:38:08;;;;;;;4.28;1.02;;;9.50;1.00;;;;;;20665742;28;20049;-39
2024/03/04 09:48:11;;;;;;;2.53;1.02;;;9.60;1.00;;;;;;20687874;28;20049;-39
2024/03/04 09:58:12;;;;;;;3.50;1.40;;;9.40;1.00;;;;;;20684947;28;20061;-39
2024/03/04 10:08:12;;;;;;;2.85;1.60;;;9.60;1.00;;;;;;20657526;28;20034;-39
2024/03/04 10:18:14;;;;;;;4.57;1.40;;;10.00;1.00;;;;;;20707994;28;20048;-39
2024/03/04 10:28:15;;;;;;;3.15;1.95;;;10.40;1.00;;;;;;20713644;28;20046;-39
2024/03/04 10:38:20;;;;;;;2.55;1.25;;;10.80;1.00;;;;;;20705693;28;20041;-39
2024/03/04 10:48:20;;;;;;;2.17;0.77;;;10.80;1.00;;;;;;20642400;28;20129;-39
2024/03/04 10:58:22;;;;;;;1.92;0.90;;;10.80;1.00;;;;;;20663930;28;20042;-39
2024/03/04 11:08:47;;;;;;;2.38;1.08;;;11.00;1.00;;;;;;20691217;28;20656;-39
2024/03/04 11:19:25;;;;;;;2.60;1.00;;;11.60;1.00;;;;;;20704112;28;20053;-39
2024/03/04 11:29:26;;;;;;;2.27;0.93;;;12.50;1.00;;;;;;20637961;28;20049;-39
2024/03/04 11:39:27;;;;;;;2.42;1.10;;;13.00;1.00;;;;;;20703662;28;20054;-39
2024/03/04 11:49:44;;;;;;;3.63;2.28;;;13.30;1.00;;;;;;20705338;28;20041;-40
2024/03/04 12:00:02;;;;;;;3.08;1.40;;;13.90;1.00;;;;;;20659211;28;20285;-40
2024/03/04 12:10:05;;;;;;;3.88;1.60;;;14.90;1.00;;;;;;20641008;28;20069;-40
2024/03/04 12:20:08;;;;;;;2.92;1.42;;;14.60;1.00;;;;;;20673602;28;20041;-40
2024/03/04 12:30:19;;;;;;;5.18;1.92;;;15.10;1.00;;;;;;20698292;28;20042;-40
2024/03/04 12:40:22;;;;;;;5.57;2.10;;;15.90;1.00;;;;;;20680954;28;20057;-40
2024/03/04 12:50:24;;;;;;;2.42;1.45;;;15.50;1.00;;;;;;20717758;28;20034;-40
2024/03/04 13:00:26;;;;;;;3.60;1.90;;;16.00;1.00;;;;;;20678156;28;20072;-40
2024/03/04 13:10:27;;;;;;;3.90;2.20;;;16.30;1.00;;;;;;20648856;28;20452;-40
2024/03/04 13:20:28;;;;;;;4.50;1.90;;;16.50;1.00;;;;;;20704638;28;20057;-40
2024/03/04 13:30:28;;;;;;;4.33;2.10;;;16.70;1.00;;;;;;20646869;28;20034;-40
2024/03/04 13:40:29;;;;;;;3.20;1.90;;;17.60;1.00;;;;;;20646647;28;20042;-40
2024/03/04 13:50:31;;;;;;;3.08;1.60;;;17.70;1.00;;;;;;20678894;28;20121;-40
2024/03/04 14:00:31;;;;;;;5.28;2.00;;;18.10;1.00;;;;;;20703939;28;20081;-41
2024/03/04 14:10:32;;;;;;;4.65;1.92;;;18.00;1.00;;;;;;20674392;28;20058;-40
2024/03/04 14:20:33;;;;;;;2.60;1.70;;;18.00;1.00;;;;;;20713892;28;20265;-41
2024/03/04 14:30:33;;;;;;;2.70;1.67;;;17.80;1.00;;;;;;20641265;28;21224;-41
2024/03/04 14:40:34;;;;;;;3.13;1.80;;;18.20;1.00;;;;;;20708514;28;20064;-40
2024/03/04 14:50:34;;;;;;;3.05;1.92;;;18.50;1.00;;;;;;20670492;28;20053;-40
2024/03/04 15:00:35;;;;;;;3.50;2.10;;;17.50;1.00;;;;;;20712583;28;20049;-40
2024/03/04 15:10:36;;;;;;;3.85;2.17;;;16.10;1.00;;;;;;20707418;28;20034;-40
2024/03/04 15:20:37;;;;;;;3.22;1.73;;;15.10;1.00;;;;;;20669529;28;20038;-40
2024/03/04 15:30:37;;;;;;;3.58;2.00;;;14.60;1.00;;;;;;20622653;28;20108;-39
2024/03/04 15:40:38;;;;;;;3.88;1.80;;;14.20;1.00;;;;;;20672202;28;20038;-39
2024/03/04 15:50:38;;;;;;;4.67;2.10;;;13.70;1.00;;;;;;20703096;28;20038;-39
2024/03/04 16:00:39;;;;;;;4.28;1.90;;;13.00;1.00;;;;;;20676928;28;20057;-40
2024/03/04 16:10:40;;;;;;;3.05;1.70;;;12.60;1.00;;;;;;20678065;28;20041;-40
2024/03/04 16:20:40;;;;;;;6.65;2.28;;;12.30;1.00;;;;;;20667469;28;20047;-40
2024/03/04 16:30:42;;;;;;;3.42;2.05;;;12.00;1.00;;;;;;20639230;28;20069;-40
2024/03/04 16:40:43;;;;;;;4.47;1.90;;;11.70;1.00;;;;;;20683757;28;20045;-40
2024/03/04 16:50:44;;;;;;;3.17;1.98;;;11.40;1.00;;;;;;20696258;28;20049;-40
2024/03/04 17:00:45;;;;;;;5.95;2.45;;;11.10;1.00;;;;;;20698578;28;20034;-40
2024/03/04 17:10:48;;;;;;;4.15;2.45;;;10.80;1.00;;;;;;20690051;28;20444;-40
2024/03/04 17:20:49;;;;;;;3.30;2.10;;;10.60;1.00;;;;;;20673103;28;20565;-40
2024/03/04 17:30:49;;;;;;;5.23;2.30;;;10.30;1.00;;;;;;20647604;28;21074;-40
2024/03/04 17:40:50;;;;;;;4.07;2.13;;;10.30;1.00;;;;;;20628016;28;21713;-40
2024/03/04 17:50:50;;;;;;;6.80;2.83;;;10.10;1.00;;;;;;20574547;28;20051;-40
2024/03/04 18:00:51;;;;;;;4.13;2.50;;;9.90;1.00;;;;;;20642371;28;20069;-40
2024/03/04 18:10:51;;;;;;;5.05;2.53;;;9.80;1.00;;;;;;20579979;28;20123;-40
2024/03/04 18:20:52;;;;;;;4.63;2.50;;;9.60;1.00;;;;;;20598435;28;20450;-40
2024/03/04 18:30:53;;;;;;;4.00;2.60;;;9.30;1.00;;;;;;20612394;28;20048;-39
2024/03/04 18:40:53;;;;;;;4.50;2.45;;;9.30;1.00;;;;;;20639405;28;20296;-40
2024/03/04 18:50:54;;;;;;;5.50;3.00;;;9.20;1.00;;;;;;20636336;28;20470;-40
2024/03/04 19:00:55;;;;;;;4.97;2.90;;;9.20;1.00;;;;;;20602787;28;20111;-40
2024/03/04 19:10:56;;;;;;;4.88;2.70;;;9.10;1.00;;;;;;20647710;28;20049;-40
2024/03/04 19:20:56;;;;;;;7.28;3.17;;;9.00;1.00;;;;;;20636194;28;20099;-39
2024/03/04 19:30:57;;;;;;;6.30;3.50;;;8.80;1.00;;;;;;20613536;28;20069;-40
2024/03/04 19:40:57;;;;;;;8.40;4.88;;;8.80;1.00;;;;;;20585603;28;20038;-40
2024/03/04 19:50:58;;;;;;;7.60;3.25;;;8.70;1.00;;;;;;20657926;28;20465;-40
2024/03/04 20:00:59;;;;;;;7.25;3.75;;;8.60;1.00;;;;;;20646130;28;20129;-40
2024/03/04 20:11:00;;;;;;;7.05;3.58;;;8.40;1.00;;;;;;20668131;28;20045;-39
2024/03/04 20:21:04;;;;;;;5.45;3.65;;;8.30;1.00;;;;;;20648620;28;20034;-47
2024/03/04 20:31:05;;;;;;;5.68;3.85;;;8.20;1.00;;;;;;20642322;28;20116;-40
2024/03/04 20:41:09;;;;;;;7.07;3.40;;;8.20;1.00;;;;;;20675381;28;20060;-40
2024/03/04 20:51:12;;;;;;;5.57;3.38;;;8.10;1.00;;;;;;20644826;28;20528;-40
2024/03/04 21:01:13;;;;;;;5.85;3.08;;;7.90;1.00;;;;;;20630502;28;20053;-39
2024/03/04 21:11:15;;;;;;;9.23;4.72;;;7.80;1.00;;;;;;20667224;28;20038;-40
2024/03/04 21:21:16;;;;;;;8.43;5.05;;;7.60;1.00;;;;;;20683557;28;20444;-39
2024/03/04 21:31:16;;;;;;;8.50;4.65;;;7.50;1.00;;;;;;20673290;28;20030;-39
2024/03/04 21:41:17;;;;;;;8.80;4.95;;;7.40;1.00;;;;;;20689677;28;20506;-40
2024/03/04 21:51:17;;;;;;;8.63;4.82;;;7.20;1.00;;;;;;20695144;28;20038;-39
2024/03/04 22:01:22;;;;;;;6.82;4.63;;;7.10;1.00;;;;;;20688523;28;20041;-39
2024/03/04 22:11:23;;;;;;;8.82;4.75;;;6.90;3.80;;;;;;20692304;28;20223;-40
2024/03/04 22:21:23;;;;;;;7.75;5.10;;;6.80;12.00;;;;;;20664977;28;20038;-39
2024/03/04 22:31:24;;;;;;;9.70;5.20;;;6.90;17.60;;;;;;20655928;28;20045;-39
2024/03/04 22:41:25;;;;;;;8.10;5.15;;;6.90;20.90;;;;;;20697311;28;20046;-39
2024/03/04 22:51:25;;;;;;;8.40;4.82;;;6.90;21.90;;;;;;20680264;28;20367;-39
2024/03/04 23:01:30;;;;;;;8.13;5.07;;;6.90;22.90;;;;;;20676806;28;20037;-39
2024/03/04 23:11:30;;;;;;;9.00;5.70;;;6.80;19.50;;;;;;20679942;28;20417;-39
2024/03/04 23:21:31;;;;;;;7.73;5.63;;;6.70;18.30;;;;;;20675908;28;20386;-39
2024/03/04 23:31:31;;;;;;;10.98;6.80;;;6.60;22.50;;;;;;20679704;28;20165;-39
2024/03/04 23:41:32;;;;;;;12.52;6.38;;;6.50;26.10;;;;;;20677956;28;20521;-39
2024/03/04 23:51:33;;;;;;;12.90;7.07;;;6.50;29.60;;;;;;20657665;28;20156;-39
